createdAt,value
2018-11-05T00:00:40.533Z,98.18
2018-11-05T00:01:40.553Z,97.89
2018-11-05T00:02:40.577Z,98.18
2018-11-05T00:03:40.531Z,97.99
2018-11-05T00:04:40.532Z,98.18
2018-11-05T00:05:40.534Z,98.08
2018-11-05T00:06:40.281Z,97.89
2018-11-05T00:07:40.542Z,98.18
2018-11-05T00:08:40.537Z,98.08
2018-11-05T00:09:40.316Z,98.18
2018-11-05T00:10:40.551Z,98.22
2018-11-05T00:11:40.545Z,98.36
2018-11-05T00:12:40.546Z,98.27
2018-11-05T00:13:40.551Z,97.89
2018-11-05T00:14:40.554Z,98.18
2018-11-05T00:15:40.555Z,98.18
2018-11-05T00:16:40.557Z,97.8
2018-11-05T00:17:40.607Z,98.36
2018-11-05T00:18:40.570Z,98.36
2018-11-05T00:19:40.563Z,97.89
2018-11-05T00:20:40.569Z,98.18
2018-11-05T00:21:40.570Z,98.27
2018-11-05T00:22:40.319Z,97.89
2018-11-05T00:23:40.572Z,97.89
2018-11-05T00:24:40.578Z,97.61
2018-11-05T00:25:40.579Z,98.08
2018-11-05T00:26:40.580Z,98.08
2018-11-05T00:27:40.832Z,97.51
2018-11-05T00:28:40.576Z,97.7
2018-11-05T00:29:40.578Z,97.32
2018-11-05T00:30:40.581Z,97.41
2018-11-05T00:31:40.583Z,97.32
2018-11-05T00:32:40.382Z,97.41
2018-11-05T00:33:40.338Z,97.89
2018-11-05T00:34:40.608Z,97.7
2018-11-05T00:35:40.603Z,97.99
2018-11-05T00:36:40.613Z,98.08
2018-11-05T00:37:40.358Z,97.61
2018-11-05T00:38:40.618Z,97.51
2018-11-05T00:39:40.615Z,97.32
2018-11-05T00:40:40.359Z,97.41
2018-11-05T00:41:40.613Z,97.8
2018-11-05T00:42:40.619Z,97.99
2018-11-05T00:43:40.620Z,97.89
2018-11-05T00:44:40.624Z,97.41
2018-11-05T00:45:40.799Z,97.13
2018-11-05T00:46:40.676Z,97.8
2018-11-05T00:47:40.679Z,98.08
2018-11-05T00:48:40.630Z,97.89
2018-11-05T00:49:40.379Z,97.8
2018-11-05T00:50:40.634Z,97.41
2018-11-05T00:51:40.390Z,97.8
2018-11-05T00:52:40.633Z,98.18
2018-11-05T00:53:40.635Z,97.8
2018-11-05T00:54:40.388Z,98.08
2018-11-05T00:55:40.388Z,98.27
2018-11-05T00:56:40.775Z,97.8
2018-11-05T00:57:40.649Z,98.27
2018-11-05T00:58:40.663Z,98.56
2018-11-05T00:59:40.647Z,97.41
2018-11-05T01:00:40.650Z,97.89
2018-11-05T01:01:40.403Z,97.61
2018-11-05T01:02:40.712Z,97.32
2018-11-05T01:03:40.689Z,97.22
2018-11-05T01:04:40.663Z,97.32
2018-11-05T01:05:40.666Z,97.41
2018-11-05T01:06:40.673Z,97.41
2018-11-05T01:07:40.681Z,97.13
2018-11-05T01:08:40.678Z,97.41
2018-11-05T01:09:40.686Z,97.51
2018-11-05T01:10:40.681Z,97.32
2018-11-05T01:11:40.682Z,97.41
2018-11-05T01:12:40.444Z,97.41
2018-11-05T01:13:40.690Z,97.27
2018-11-05T01:14:40.689Z,97.17
2018-11-05T01:15:40.689Z,97.94
2018-11-05T01:16:40.441Z,97.08
2018-11-05T01:17:40.747Z,97.65
2018-11-05T01:18:40.712Z,97.46
2018-11-05T01:19:40.697Z,97.46
2018-11-05T01:20:40.707Z,97.65
2018-11-05T01:21:40.716Z,97.94
2018-11-05T01:22:40.706Z,97.65
2018-11-05T01:23:40.708Z,97.84
2018-11-05T01:24:40.713Z,97.46
2018-11-05T01:25:40.711Z,97.56
2018-11-05T01:26:40.465Z,97.75
2018-11-05T01:27:40.730Z,97.65
2018-11-05T01:28:40.723Z,98.32
2018-11-05T01:29:40.723Z,98.22
2018-11-05T01:30:40.722Z,97.46
2018-11-05T01:31:40.724Z,98.13
2018-11-05T01:32:40.728Z,98.13
2018-11-05T01:33:40.731Z,98.22
2018-11-05T01:34:40.478Z,98.13
2018-11-05T01:35:40.783Z,97.94
2018-11-05T01:36:40.480Z,98.13
2018-11-05T01:37:40.743Z,98.13
2018-11-05T01:38:40.759Z,98.22
2018-11-05T01:39:40.738Z,98.13
2018-11-05T01:40:40.740Z,98.22
2018-11-05T01:41:40.744Z,97.84
2018-11-05T01:42:40.749Z,97.61
2018-11-05T01:43:40.747Z,97.84
2018-11-05T01:44:40.752Z,97.75
2018-11-05T01:45:40.756Z,97.46
2018-11-05T01:46:40.756Z,97.8
2018-11-05T01:47:40.773Z,97.75
2018-11-05T01:48:40.760Z,97.51
2018-11-05T01:49:40.766Z,97.32
2018-11-05T01:50:40.813Z,97.32
2018-11-05T01:51:40.771Z,97.8
2018-11-05T01:52:40.768Z,97.51
2018-11-05T01:53:40.770Z,97.13
2018-11-05T01:54:40.766Z,97.41
2018-11-05T01:55:40.773Z,97.32
2018-11-05T01:56:40.776Z,97.36
2018-11-05T01:57:40.852Z,97.08
2018-11-05T01:58:40.527Z,97.46
2018-11-05T01:59:40.783Z,97.17
2018-11-05T02:00:40.531Z,97.36
2018-11-05T02:01:40.531Z,97.32
2018-11-05T02:02:40.793Z,96.89
2018-11-05T02:03:40.790Z,97.08
2018-11-05T02:04:40.795Z,97.36
2018-11-05T02:05:40.948Z,97.36
2018-11-05T02:06:40.797Z,97.08
2018-11-05T02:07:40.821Z,97.08
2018-11-05T02:08:40.552Z,97.94
2018-11-05T02:09:40.810Z,97.65
2018-11-05T02:10:40.804Z,97.75
2018-11-05T02:11:40.807Z,98.22
2018-11-05T02:12:40.801Z,97.94
2018-11-05T02:13:40.805Z,98.22
2018-11-05T02:14:40.809Z,98.32
2018-11-05T02:15:40.808Z,98.03
2018-11-05T02:16:40.817Z,97.94
2018-11-05T02:17:40.810Z,98.03
2018-11-05T02:18:40.822Z,97.94
2018-11-05T02:19:40.825Z,98.41
2018-11-05T02:20:40.876Z,98.32
2018-11-05T02:21:40.828Z,98.22
2018-11-05T02:22:40.830Z,97.84
2018-11-05T02:23:40.572Z,97.94
2018-11-05T02:24:40.831Z,98.08
2018-11-05T02:25:40.829Z,98.46
2018-11-05T02:26:40.835Z,98.27
2018-11-05T02:27:40.842Z,98.46
2018-11-05T02:28:40.581Z,98.74
2018-11-05T02:29:40.839Z,98.65
2018-11-05T02:30:40.845Z,98.65
2018-11-05T02:31:40.848Z,99.13
2018-11-05T02:32:40.843Z,98.55
2018-11-05T02:33:40.844Z,98.46
2018-11-05T02:34:40.849Z,98.74
2018-11-05T02:35:40.896Z,98.94
2018-11-05T02:36:40.850Z,98.94
2018-11-05T02:37:40.848Z,98.84
2018-11-05T02:38:40.852Z,98.84
2018-11-05T02:39:40.600Z,98.55
2018-11-05T02:40:40.857Z,98.55
2018-11-05T02:41:40.859Z,99.13
2018-11-05T02:42:40.857Z,99.13
2018-11-05T02:43:40.879Z,99.03
2018-11-05T02:44:40.868Z,99.03
2018-11-05T02:45:40.872Z,98.84
2018-11-05T02:46:40.618Z,99.03
2018-11-05T02:47:40.875Z,98.94
2018-11-05T02:48:40.867Z,99.22
2018-11-05T02:49:40.868Z,98.84
2018-11-05T02:50:40.670Z,99.03
2018-11-05T02:51:40.876Z,98.84
2018-11-05T02:52:40.878Z,98.84
2018-11-05T02:53:40.878Z,99.22
2018-11-05T02:54:40.880Z,99.22
2018-11-05T02:55:40.679Z,98.84
2018-11-05T02:56:40.630Z,99.32
2018-11-05T02:57:40.897Z,99.17
2018-11-05T02:58:40.885Z,98.98
2018-11-05T02:59:40.637Z,98.98
2018-11-05T03:00:40.642Z,98.79
2018-11-05T03:01:40.896Z,99.22
2018-11-05T03:02:40.949Z,99.22
2018-11-05T03:03:40.644Z,99.32
2018-11-05T03:04:40.645Z,98.94
2018-11-05T03:05:40.902Z,99.08
2018-11-05T03:06:40.910Z,99.41
2018-11-05T03:07:40.909Z,99.41
2018-11-05T03:08:40.907Z,99.03
2018-11-05T03:09:40.905Z,98.74
2018-11-05T03:10:40.973Z,98.94
2018-11-05T03:11:40.941Z,98.94
2018-11-05T03:12:40.915Z,98.94
2018-11-05T03:13:40.913Z,99.51
2018-11-05T03:14:40.914Z,98.84
2018-11-05T03:15:40.914Z,98.65
2018-11-05T03:16:40.917Z,99.22
2018-11-05T03:17:40.921Z,98.94
2018-11-05T03:18:40.925Z,98.84
2018-11-05T03:19:40.923Z,98.94
2018-11-05T03:20:40.939Z,98.94
2018-11-05T03:21:40.922Z,98.94
2018-11-05T03:22:40.935Z,98.74
2018-11-05T03:23:40.928Z,99.32
2018-11-05T03:24:40.929Z,98.84
2018-11-05T03:25:40.987Z,98.46
2018-11-05T03:26:40.931Z,98.94
2018-11-05T03:27:40.933Z,98.65
2018-11-05T03:28:40.935Z,98.94
2018-11-05T03:29:40.937Z,98.55
2018-11-05T03:30:40.691Z,98.18
2018-11-05T03:31:40.954Z,98.74
2018-11-05T03:32:40.973Z,98.94
2018-11-05T03:33:40.942Z,98.36
2018-11-05T03:34:40.941Z,98.36
2018-11-05T03:35:40.729Z,98.18
2018-11-05T03:36:40.946Z,98.65
2018-11-05T03:37:40.950Z,98.36
2018-11-05T03:38:40.946Z,98.55
2018-11-05T03:39:40.697Z,98.46
2018-11-05T03:40:41.001Z,98.08
2018-11-05T03:41:40.696Z,98.36
2018-11-05T03:42:40.703Z,98.55
2018-11-05T03:43:40.959Z,98.18
2018-11-05T03:44:40.711Z,98.36
2018-11-05T03:45:40.706Z,98.27
2018-11-05T03:46:40.947Z,98.27
2018-11-05T03:47:40.953Z,97.7
2018-11-05T03:48:40.961Z,97.7
2018-11-05T03:49:40.953Z,97.7
2018-11-05T03:50:40.968Z,98.46
2018-11-05T03:51:40.963Z,98.08
2018-11-05T03:52:40.956Z,98.36
2018-11-05T03:53:40.965Z,98.36
2018-11-05T03:54:40.963Z,98.36
2018-11-05T03:55:41.154Z,98.46
2018-11-05T03:56:41.164Z,98.46
2018-11-05T03:57:40.967Z,98.27
2018-11-05T03:58:40.724Z,98.27
2018-11-05T03:59:40.974Z,98.46
2018-11-05T04:00:40.985Z,98.27
2018-11-05T04:01:40.974Z,98.55
2018-11-05T04:02:40.974Z,98.36
2018-11-05T04:03:40.730Z,98.55
2018-11-05T04:04:40.996Z,98.65
2018-11-05T04:05:41.038Z,98.27
2018-11-05T04:06:40.988Z,98.74
2018-11-05T04:07:40.995Z,98.65
2018-11-05T04:08:40.995Z,99.03
2018-11-05T04:09:41.005Z,98.74
2018-11-05T04:10:40.991Z,99.13
2018-11-05T04:11:40.994Z,98.84
2018-11-05T04:12:40.746Z,98.46
2018-11-05T04:13:41.010Z,98.84
2018-11-05T04:14:41.006Z,98.65
2018-11-05T04:15:40.948Z,98.94
2018-11-05T04:16:41.004Z,98.84
2018-11-05T04:17:41.004Z,99.36
2018-11-05T04:18:41.003Z,99.41
2018-11-05T04:19:41.008Z,99.22
2018-11-05T04:20:41.077Z,98.46
2018-11-05T04:21:41.011Z,98.65
2018-11-05T04:22:40.763Z,99.46
2018-11-05T04:23:41.012Z,98.79
2018-11-05T04:24:41.015Z,99.36
2018-11-05T04:25:41.018Z,99.17
2018-11-05T04:26:41.023Z,99.22
2018-11-05T04:27:41.272Z,99.13
2018-11-05T04:28:41.020Z,99.6
2018-11-05T04:29:41.020Z,99.32
2018-11-05T04:30:41.020Z,99.22
2018-11-05T04:31:41.020Z,99.32
2018-11-05T04:32:41.026Z,99.22
2018-11-05T04:33:41.030Z,99.41
2018-11-05T04:34:41.024Z,99.13
2018-11-05T04:35:41.076Z,99.13
2018-11-05T04:36:41.040Z,99.22
2018-11-05T04:37:41.051Z,99.13
2018-11-05T04:38:41.041Z,99.51
2018-11-05T04:39:41.025Z,98.94
2018-11-05T04:40:40.785Z,98.84
2018-11-05T04:41:41.037Z,98.84
2018-11-05T04:42:41.065Z,98.98
2018-11-05T04:43:41.042Z,98.6
2018-11-05T04:44:40.791Z,99.13
2018-11-05T04:45:41.060Z,99.03
2018-11-05T04:46:41.047Z,99.03
2018-11-05T04:47:41.050Z,98.65
2018-11-05T04:48:41.046Z,98.46
2018-11-05T04:49:41.052Z,98.84
2018-11-05T04:50:41.102Z,98.36
2018-11-05T04:51:41.061Z,99.03
2018-11-05T04:52:41.053Z,98.74
2018-11-05T04:53:41.057Z,98.74
2018-11-05T04:54:41.056Z,99.22
2018-11-05T04:55:41.057Z,98.84
2018-11-05T04:56:41.059Z,99.32
2018-11-05T04:57:41.068Z,99.03
2018-11-05T04:58:41.063Z,98.88
2018-11-05T04:59:41.066Z,99.41
2018-11-05T05:00:41.063Z,98.6
2018-11-05T05:01:41.065Z,98.98
2018-11-05T05:02:41.072Z,98.5
2018-11-05T05:03:41.071Z,99.08
2018-11-05T05:04:40.815Z,98.98
2018-11-05T05:05:41.120Z,98.69
2018-11-05T05:06:41.084Z,99.03
2018-11-05T05:07:41.073Z,98.41
2018-11-05T05:08:41.075Z,98.5
2018-11-05T05:09:41.080Z,98.32
2018-11-05T05:10:41.087Z,98.32
2018-11-05T05:11:41.088Z,98.41
2018-11-05T05:12:41.087Z,98.32
2018-11-05T05:13:41.080Z,98.5
2018-11-05T05:14:41.084Z,98.32
2018-11-05T05:15:41.084Z,98.32
2018-11-05T05:16:41.095Z,98.41
2018-11-05T05:17:41.088Z,98.22
2018-11-05T05:18:41.088Z,98.5
2018-11-05T05:19:41.090Z,98.41
2018-11-05T05:20:41.143Z,98.32
2018-11-05T05:21:40.844Z,98.5
2018-11-05T05:22:41.635Z,98.03
2018-11-05T05:23:41.094Z,98.6
2018-11-05T05:24:41.118Z,98.32
2018-11-05T05:25:40.898Z,98.6
2018-11-05T05:26:40.849Z,98.5
2018-11-05T05:27:40.849Z,98.69
2018-11-05T05:28:41.105Z,98.88
2018-11-05T05:29:40.849Z,98.5
2018-11-05T05:30:41.109Z,98.69
2018-11-05T05:31:41.109Z,98.79
2018-11-05T05:32:41.105Z,98.79
2018-11-05T05:33:40.987Z,99.17
2018-11-05T05:34:41.119Z,99.17
2018-11-05T05:35:41.161Z,98.79
2018-11-05T05:36:41.114Z,98.69
2018-11-05T05:37:41.115Z,99.17
2018-11-05T05:38:41.121Z,98.6
2018-11-05T05:39:40.862Z,99.17
2018-11-05T05:40:40.869Z,98.6
2018-11-05T05:41:41.127Z,99.17
2018-11-05T05:42:41.117Z,98.79
2018-11-05T05:43:41.127Z,98.6
2018-11-05T05:44:41.121Z,98.6
2018-11-05T05:45:41.173Z,98.98
2018-11-05T05:46:41.125Z,98.69
2018-11-05T05:47:41.123Z,98.79
2018-11-05T05:48:40.871Z,98.98
2018-11-05T05:49:41.127Z,98.88
2018-11-05T05:50:40.887Z,98.79
2018-11-05T05:51:41.130Z,97.98
2018-11-05T05:52:41.134Z,98.65
2018-11-05T05:53:41.134Z,98.36
2018-11-05T05:54:41.135Z,99.12
2018-11-05T05:55:41.137Z,99.22
2018-11-05T05:56:41.130Z,99.22
2018-11-05T05:57:41.131Z,98.93
2018-11-05T05:58:40.881Z,99.12
2018-11-05T05:59:41.201Z,99.02
2018-11-05T06:00:41.185Z,98.93
2018-11-05T06:01:41.132Z,98.93
2018-11-05T06:02:41.132Z,99.02
2018-11-05T06:03:41.139Z,98.93
2018-11-05T06:04:40.884Z,99.02
2018-11-05T06:05:41.135Z,99.02
2018-11-05T06:06:41.446Z,98.74
2018-11-05T06:07:41.175Z,98.93
2018-11-05T06:08:41.133Z,98.83
2018-11-05T06:09:41.153Z,99.22
2018-11-05T06:10:41.135Z,98.83
2018-11-05T06:11:41.147Z,99.12
2018-11-05T06:12:41.157Z,98.65
2018-11-05T06:13:41.150Z,99.12
2018-11-05T06:14:41.156Z,99.12
2018-11-05T06:15:41.265Z,98.93
2018-11-05T06:16:41.155Z,99.02
2018-11-05T06:17:41.158Z,99.12
2018-11-05T06:18:41.164Z,98.93
2018-11-05T06:19:41.158Z,99.02
2018-11-05T06:20:41.165Z,99.02
2018-11-05T06:21:41.197Z,98.74
2018-11-05T06:22:41.160Z,99.22
2018-11-05T06:23:41.163Z,98.93
2018-11-05T06:24:41.215Z,99.02
2018-11-05T06:25:41.171Z,98.93
2018-11-05T06:26:41.166Z,99.41
2018-11-05T06:27:41.168Z,99.12
2018-11-05T06:28:41.441Z,99.22
2018-11-05T06:29:40.916Z,99.31
2018-11-05T06:30:41.233Z,98.98
2018-11-05T06:31:41.175Z,99.12
2018-11-05T06:32:41.986Z,98.74
2018-11-05T06:33:41.171Z,98.88
2018-11-05T06:34:41.174Z,98.6
2018-11-05T06:35:41.273Z,98.6
2018-11-05T06:36:41.176Z,98.69
2018-11-05T06:37:41.180Z,98.41
2018-11-05T06:38:41.175Z,98.69
2018-11-05T06:39:41.181Z,98.69
2018-11-05T06:40:41.177Z,98.41
2018-11-05T06:41:41.238Z,98.41
2018-11-05T06:42:41.177Z,98.6
2018-11-05T06:43:40.930Z,98.32
2018-11-05T06:44:41.289Z,98.03
2018-11-05T06:45:41.237Z,98.03
2018-11-05T06:46:41.186Z,97.65
2018-11-05T06:47:41.190Z,98.13
2018-11-05T06:48:40.940Z,98.13
2018-11-05T06:49:40.937Z,97.84
2018-11-05T06:50:41.241Z,97.84
2018-11-05T06:51:41.193Z,97.84
2018-11-05T06:52:41.260Z,98.13
2018-11-05T06:53:41.198Z,98.03
2018-11-05T06:54:40.941Z,97.84
2018-11-05T06:55:41.200Z,98.03
2018-11-05T06:56:40.942Z,98.03
2018-11-05T06:57:41.363Z,97.65
2018-11-05T06:58:41.198Z,98.08
2018-11-05T06:59:41.201Z,98.22
2018-11-05T07:00:41.205Z,98.32
2018-11-05T07:01:40.949Z,98.08
2018-11-05T07:02:41.432Z,97.99
2018-11-05T07:03:40.950Z,98.18
2018-11-05T07:04:41.214Z,97.99
2018-11-05T07:05:41.085Z,97.79
2018-11-05T07:06:41.210Z,98.27
2018-11-05T07:07:41.213Z,97.79
2018-11-05T07:08:41.209Z,98.08
2018-11-05T07:09:41.374Z,97.79
2018-11-05T07:10:40.967Z,97.79
2018-11-05T07:11:41.215Z,97.51
2018-11-05T07:12:41.216Z,97.41
2018-11-05T07:13:41.221Z,97.6
2018-11-05T07:14:41.222Z,97.13
2018-11-05T07:15:41.222Z,97.13
2018-11-05T07:16:40.994Z,97.03
2018-11-05T07:17:40.970Z,97.31
2018-11-05T07:18:41.132Z,97.13
2018-11-05T07:19:40.976Z,97.31
2018-11-05T07:20:41.280Z,97.41
2018-11-05T07:21:40.976Z,97.41
2018-11-05T07:22:40.977Z,97.03
2018-11-05T07:23:41.233Z,96.84
2018-11-05T07:24:41.231Z,97.03
2018-11-05T07:25:41.285Z,97.13
2018-11-05T07:26:41.384Z,96.75
2018-11-05T07:27:41.389Z,97.31
2018-11-05T07:28:41.241Z,96.75
2018-11-05T07:29:41.242Z,96.55
2018-11-05T07:30:41.294Z,96.46
2018-11-05T07:31:41.319Z,96.65
2018-11-05T07:32:41.256Z,97.03
2018-11-05T07:33:41.397Z,96.55
2018-11-05T07:34:41.253Z,96.65
2018-11-05T07:35:41.253Z,96.46
2018-11-05T07:36:41.002Z,96.55
2018-11-05T07:37:41.256Z,96.46
2018-11-05T07:38:41.254Z,96.46
2018-11-05T07:39:41.258Z,96.46
2018-11-05T07:40:41.262Z,96.46
2018-11-05T07:41:41.261Z,96.65
2018-11-05T07:42:41.265Z,96.6
2018-11-05T07:43:41.014Z,96.7
2018-11-05T07:44:41.267Z,96.8
2018-11-05T07:45:41.312Z,96.51
2018-11-05T07:46:41.263Z,96.12
2018-11-05T07:47:41.264Z,96.32
2018-11-05T07:48:41.276Z,96.32
2018-11-05T07:49:41.270Z,96.51
2018-11-05T07:50:41.356Z,96.51
2018-11-05T07:51:41.280Z,96.7
2018-11-05T07:52:41.288Z,95.94
2018-11-05T07:53:41.283Z,96.03
2018-11-05T07:54:41.294Z,96.12
2018-11-05T07:55:41.288Z,96.03
2018-11-05T07:56:41.085Z,96.12
2018-11-05T07:57:41.289Z,96.6
2018-11-05T07:58:41.293Z,96.51
2018-11-05T07:59:41.041Z,96.03
2018-11-05T08:00:41.139Z,95.75
2018-11-05T08:01:41.301Z,95.65
2018-11-05T08:02:41.086Z,95.94
2018-11-05T08:03:41.048Z,95.94
2018-11-05T08:04:41.302Z,95.98
2018-11-05T08:05:41.305Z,96.17
2018-11-05T08:06:41.307Z,95.7
2018-11-05T08:07:41.309Z,95.89
2018-11-05T08:08:41.056Z,95.56
2018-11-05T08:09:41.315Z,95.94
2018-11-05T08:10:41.323Z,95.65
2018-11-05T08:11:41.322Z,95.84
2018-11-05T08:12:41.073Z,95.56
2018-11-05T08:13:41.323Z,95.17
2018-11-05T08:14:41.324Z,95.46
2018-11-05T08:15:41.376Z,95.65
2018-11-05T08:16:41.078Z,95.46
2018-11-05T08:17:41.333Z,95.65
2018-11-05T08:18:41.337Z,95.65
2018-11-05T08:19:41.340Z,95.61
2018-11-05T08:20:41.343Z,95.79
2018-11-05T08:21:41.342Z,95.32
2018-11-05T08:22:41.342Z,95.7
2018-11-05T08:23:41.344Z,95.41
2018-11-05T08:24:41.351Z,95.61
2018-11-05T08:25:41.351Z,94.74
2018-11-05T08:26:41.097Z,95.79
2018-11-05T08:27:41.100Z,95.32
2018-11-05T08:28:41.357Z,94.93
2018-11-05T08:29:41.363Z,94.56
2018-11-05T08:30:41.413Z,95.12
2018-11-05T08:31:41.362Z,94.46
2018-11-05T08:32:41.365Z,94.46
2018-11-05T08:33:41.370Z,94.84
2018-11-05T08:34:41.113Z,94.37
2018-11-05T08:35:41.415Z,94.6
2018-11-05T08:36:41.371Z,94.89
2018-11-05T08:37:41.371Z,93.93
2018-11-05T08:38:41.389Z,94.22
2018-11-05T08:39:41.385Z,93.65
2018-11-05T08:40:41.439Z,93.55
2018-11-05T08:41:41.391Z,94.12
2018-11-05T08:42:41.395Z,93.93
2018-11-05T08:43:41.392Z,92.88
2018-11-05T08:44:41.396Z,93.27
2018-11-05T08:45:41.398Z,93.55
2018-11-05T08:46:41.505Z,93.27
2018-11-05T08:47:41.400Z,93.36
2018-11-05T08:48:41.153Z,93.84
2018-11-05T08:49:41.413Z,93.17
2018-11-05T08:50:41.617Z,93.17
2018-11-05T08:51:41.980Z,93.08
2018-11-05T08:52:41.418Z,93.36
2018-11-05T08:53:41.422Z,93.46
2018-11-05T08:54:41.170Z,93.17
2018-11-05T08:55:41.481Z,93.08
2018-11-05T08:56:41.435Z,93.17
2018-11-05T08:57:41.838Z,93.27
2018-11-05T08:58:41.432Z,92.5
2018-11-05T08:59:41.440Z,92.41
2018-11-05T09:00:41.445Z,92.12
2018-11-05T09:01:41.447Z,92.5
2018-11-05T09:02:41.196Z,92.41
2018-11-05T09:03:41.452Z,92.6
2018-11-05T09:04:41.674Z,92.32
2018-11-05T09:05:41.459Z,92.46
2018-11-05T09:06:41.461Z,92.41
2018-11-05T09:07:41.464Z,91.78
2018-11-05T09:08:41.470Z,91.69
2018-11-05T09:09:41.497Z,91.5
2018-11-05T09:10:42.166Z,91.6
2018-11-05T09:11:42.143Z,91.41
2018-11-05T09:12:41.228Z,91.31
2018-11-05T09:13:41.476Z,90.88
2018-11-05T09:14:41.482Z,90.88
2018-11-05T09:15:41.484Z,89.83
2018-11-05T09:16:41.514Z,90.11
2018-11-05T09:17:41.495Z,89.68
2018-11-05T09:18:41.243Z,88.82
2018-11-05T09:19:41.501Z,89.01
2018-11-05T09:20:41.636Z,89.3
2018-11-05T09:21:41.513Z,88.82
2018-11-05T09:22:41.520Z,87.77
2018-11-05T09:23:41.525Z,88.15
2018-11-05T09:24:41.527Z,87.58
2018-11-05T09:25:41.633Z,87.58
2018-11-05T09:26:41.533Z,87.82
2018-11-05T09:27:41.636Z,87.53
2018-11-05T09:28:41.542Z,86.96
2018-11-05T09:29:41.297Z,86.76
2018-11-05T09:30:41.554Z,85.66
2018-11-05T09:31:41.557Z,85.75
2018-11-05T09:32:41.562Z,85.28
2018-11-05T09:33:41.568Z,84.89
2018-11-05T09:34:41.570Z,84.32
2018-11-05T09:35:41.626Z,84.7
2018-11-05T09:36:41.327Z,84.52
2018-11-05T09:37:41.588Z,83.27
2018-11-05T09:38:41.591Z,83.12
2018-11-05T09:39:41.597Z,82.54
2018-11-05T09:40:41.600Z,82.17
2018-11-05T09:41:41.603Z,81.4
2018-11-05T09:42:41.744Z,81.49
2018-11-05T09:43:41.633Z,81.11
2018-11-05T09:44:41.621Z,80.73
2018-11-05T09:45:41.632Z,80
2018-11-05T09:46:41.380Z,79.91
2018-11-05T09:47:41.637Z,80.1
2018-11-05T09:48:41.644Z,80.1
2018-11-05T09:49:41.804Z,79.57
2018-11-05T09:50:41.927Z,77.69
2018-11-05T09:51:41.665Z,76.54
2018-11-05T09:52:41.668Z,75.71
2018-11-05T09:53:41.673Z,75.43
2018-11-05T09:54:41.677Z,73.55
2018-11-05T09:55:41.879Z,73.07
2018-11-05T09:56:41.697Z,71.86
2018-11-05T09:57:41.714Z,70.9
2018-11-05T09:58:41.459Z,71.12
2018-11-05T09:59:41.721Z,70.49
2018-11-05T10:00:41.783Z,69.66
2018-11-05T10:01:41.739Z,68.02
2018-11-05T10:02:41.828Z,67.19
2018-11-05T10:03:42.573Z,66.14
2018-11-05T10:04:42.792Z,64.73
2018-11-05T10:05:41.924Z,63.89
2018-11-05T10:06:41.537Z,63.7
2018-11-05T10:07:41.549Z,62.45
2018-11-05T10:08:41.562Z,62.74
2018-11-05T10:09:41.974Z,61.32
2018-11-05T10:10:41.634Z,61.32
2018-11-05T10:11:42.051Z,61.32
2018-11-05T10:12:41.858Z,61.07
2018-11-05T10:13:41.871Z,60.3
2018-11-05T10:14:41.891Z,60.32
2018-11-05T10:15:41.892Z,59.55
2018-11-05T10:16:41.909Z,59.45
2018-11-05T10:17:41.919Z,58.52
2018-11-05T10:18:41.675Z,58.4
2018-11-05T10:19:41.939Z,59.04
2018-11-05T10:20:41.954Z,59.43
2018-11-05T10:21:41.966Z,59.52
2018-11-05T10:22:41.979Z,58.59
2018-11-05T10:23:41.994Z,58.47
2018-11-05T10:24:42.210Z,58.47
2018-11-05T10:25:42.163Z,57.82
2018-11-05T10:26:41.781Z,57.89
2018-11-05T10:27:42.044Z,58.47
2018-11-05T10:28:42.047Z,58.01
2018-11-05T10:29:42.072Z,57.43
2018-11-05T10:30:42.079Z,56.3
2018-11-05T10:31:41.832Z,56.4
2018-11-05T10:32:42.200Z,55.7
2018-11-05T10:33:42.003Z,55.92
2018-11-05T10:34:42.124Z,55.82
2018-11-05T10:35:42.139Z,54.96
2018-11-05T10:36:42.147Z,54.4
2018-11-05T10:37:42.161Z,54.4
2018-11-05T10:38:42.174Z,54.31
2018-11-05T10:39:42.187Z,54.88
2018-11-05T10:40:42.000Z,54.96
2018-11-05T10:41:41.958Z,54.79
2018-11-05T10:42:42.224Z,54.88
2018-11-05T10:43:41.984Z,54.24
2018-11-05T10:44:42.263Z,53.75
2018-11-05T10:45:42.268Z,53.88
2018-11-05T10:46:42.280Z,53.2
2018-11-05T10:47:42.294Z,52.17
2018-11-05T10:48:42.053Z,52.84
2018-11-05T10:49:42.323Z,52.26
2018-11-05T10:50:42.469Z,52.07
2018-11-05T10:51:42.562Z,51.13
2018-11-05T10:52:42.359Z,51.35
2018-11-05T10:53:42.375Z,50.28
2018-11-05T10:54:42.392Z,50.12
2018-11-05T10:55:42.455Z,49.73
2018-11-05T10:56:42.419Z,48.95
2018-11-05T10:57:42.493Z,49.05
2018-11-05T10:58:42.447Z,48.57
2018-11-05T10:59:42.211Z,48.79
2018-11-05T11:00:42.477Z,48.11
2018-11-05T11:01:42.255Z,47.81
2018-11-05T11:02:42.508Z,48.3
2018-11-05T11:03:42.692Z,47.91
2018-11-05T11:04:42.535Z,46.97
2018-11-05T11:05:42.561Z,46.97
2018-11-05T11:06:42.566Z,46.97
2018-11-05T11:07:42.584Z,46.7
2018-11-05T11:08:42.601Z,46.24
2018-11-05T11:09:42.729Z,45.78
2018-11-05T11:10:42.686Z,44.54
2018-11-05T11:11:42.673Z,44.64
2018-11-05T11:12:42.668Z,44.44
2018-11-05T11:13:42.688Z,44.17
2018-11-05T11:14:42.701Z,43.78
2018-11-05T11:15:42.721Z,43.22
2018-11-05T11:16:42.750Z,42.36
2018-11-05T11:17:42.760Z,42.46
2018-11-05T11:18:42.783Z,42.36
2018-11-05T11:19:42.795Z,42.56
2018-11-05T11:20:42.820Z,42
2018-11-05T11:21:42.833Z,41.42
2018-11-05T11:22:42.597Z,41.61
2018-11-05T11:23:42.877Z,41.42
2018-11-05T11:24:42.891Z,41.8
2018-11-05T11:25:42.955Z,41.32
2018-11-05T11:26:42.927Z,41.05
2018-11-05T11:27:43.064Z,40.47
2018-11-05T11:28:43.160Z,40.56
2018-11-05T11:29:42.980Z,39.7
2018-11-05T11:30:43.277Z,39.9
2018-11-05T11:31:43.015Z,39.43
2018-11-05T11:32:43.034Z,40.01
2018-11-05T11:33:43.058Z,39.04
2018-11-05T11:34:43.076Z,39.34
2018-11-05T11:35:43.093Z,38.85
2018-11-05T11:36:42.981Z,38.89
2018-11-05T11:37:43.139Z,38.4
2018-11-05T11:38:42.904Z,37.83
2018-11-05T11:39:43.172Z,37.43
2018-11-05T11:40:43.253Z,37.63
2018-11-05T11:41:43.244Z,37.73
2018-11-05T11:42:43.244Z,37.71
2018-11-05T11:43:43.264Z,37.33
2018-11-05T11:44:43.443Z,37.91
2018-11-05T11:45:43.356Z,37.81
2018-11-05T11:46:43.324Z,38.3
2018-11-05T11:47:43.346Z,37.91
2018-11-05T11:48:43.362Z,38.32
2018-11-05T11:49:43.383Z,37.05
2018-11-05T11:50:43.407Z,37.15
2018-11-05T11:51:43.420Z,37.35
2018-11-05T11:52:43.657Z,36.66
2018-11-05T11:53:43.566Z,36.47
2018-11-05T11:54:43.507Z,36.29
2018-11-05T11:55:43.553Z,36.76
2018-11-05T11:56:43.530Z,36.96
2018-11-05T11:57:43.290Z,36.65
2018-11-05T11:58:43.567Z,36.47
2018-11-05T11:59:43.596Z,36.94
2018-11-05T12:00:43.351Z,37.12
2018-11-05T12:01:43.632Z,37.31
2018-11-05T12:02:43.646Z,38.38
2018-11-05T12:03:43.717Z,38.48
2018-11-05T12:04:43.708Z,38.36
2018-11-05T12:05:43.705Z,38.17
2018-11-05T12:06:43.724Z,37.89
2018-11-05T12:07:43.738Z,36.65
2018-11-05T12:08:43.761Z,36.84
2018-11-05T12:09:43.778Z,37.05
2018-11-05T12:10:43.797Z,35.8
2018-11-05T12:11:43.817Z,35.24
2018-11-05T12:12:43.886Z,34.77
2018-11-05T12:13:43.856Z,34.47
2018-11-05T12:14:44.379Z,34.47
2018-11-05T12:15:43.914Z,35.16
2018-11-05T12:16:43.939Z,35.55
2018-11-05T12:17:43.989Z,35.33
2018-11-05T12:18:43.958Z,36.41
2018-11-05T12:19:43.974Z,35.53
2018-11-05T12:20:44.012Z,34.57
2018-11-05T12:21:43.762Z,34.97
2018-11-05T12:22:43.779Z,34.19
2018-11-05T12:23:44.053Z,34.39
2018-11-05T12:24:44.130Z,35.64
2018-11-05T12:25:44.091Z,35.04
2018-11-05T12:26:44.185Z,35.33
2018-11-05T12:27:44.131Z,34.67
2018-11-05T12:28:43.896Z,34.11
2018-11-05T12:29:43.920Z,34.03
2018-11-05T12:30:44.191Z,33.46
2018-11-05T12:31:44.219Z,32.87
2018-11-05T12:32:44.295Z,32.39
2018-11-05T12:33:43.996Z,32.78
2018-11-05T12:34:44.270Z,32.48
2018-11-05T12:35:44.288Z,33.09
2018-11-05T12:36:44.313Z,31.83
2018-11-05T12:37:44.334Z,31.17
2018-11-05T12:38:44.514Z,30.4
2018-11-05T12:39:44.421Z,28.96
2018-11-05T12:40:44.142Z,29.45
2018-11-05T12:41:44.472Z,29.16
2018-11-05T12:42:44.433Z,28.86
2018-11-05T12:43:44.460Z,29.06
2018-11-05T12:44:44.609Z,28.77
2018-11-05T12:45:44.500Z,28.67
2018-11-05T12:46:44.554Z,28.86
2018-11-05T12:47:44.598Z,28.27
2018-11-05T12:48:44.577Z,28.67
2018-11-05T12:49:44.602Z,28.77
2018-11-05T12:50:44.778Z,28.77
2018-11-05T12:51:44.641Z,28.68
2018-11-05T12:52:44.667Z,28.68
2018-11-05T12:53:44.694Z,28
2018-11-05T12:54:44.724Z,27.71
2018-11-05T12:55:44.767Z,28